sensor_id;sensor_type;location;lat;lon;timestamp;P1;durP1;ratioP1;P2;durP2;ratioP2
31596;SDS011;74162;50.912;6.918;2024-01-16T00:00:06;21.35;;;15.57;;
31596;SDS011;74162;50.912;6.918;2024-01-16T00:00:39;27.67;;;16.90;;
31596;SDS011;74162;50.912;6.918;2024-01-16T00:01:11;25.23;;;16.55;;
31596;SDS011;74162;50.912;6.918;2024-01-16T00:01:43;26.73;;;17.52;;
31596;SDS011;74162;50.912;6.918;2024-01-16T00:02:15;22.60;;;16.88;;
31596;SDS011;74162;50.912;6.918;2024-01-16T00:02:47;25.45;;;17.20;;
31596;SDS011;74162;50.912;6.918;2024-01-16T00:03:18;21.40;;;16.48;;
31596;SDS011;74162;50.912;6.918;2024-01-16T00:03:50;22.85;;;16.25;;
31596;SDS011;74162;50.912;6.918;2024-01-16T00:04:22;22.88;;;16.50;;
31596;SDS011;74162;50.912;6.918;2024-01-16T00:04:54;23.65;;;16.52;;
31596;SDS011;74162;50.912;6.918;2024-01-16T00:05:26;23.90;;;16.60;;
31596;SDS011;74162;50.912;6.918;2024-01-16T00:05:58;24.73;;;17.05;;
31596;SDS011;74162;50.912;6.918;2024-01-16T00:06:31;21.63;;;16.50;;
31596;SDS011;74162;50.912;6.918;2024-01-16T00:07:03;22.48;;;16.83;;
31596;SDS011;74162;50.912;6.918;2024-01-16T00:07:36;24.80;;;17.55;;
31596;SDS011;74162;50.912;6.918;2024-01-16T00:08:10;23.80;;;17.15;;
31596;SDS011;74162;50.912;6.918;2024-01-16T00:08:42;30.00;;;18.63;;
31596;SDS011;74162;50.912;6.918;2024-01-16T00:09:14;24.45;;;17.77;;
31596;SDS011;74162;50.912;6.918;2024-01-16T00:09:46;26.38;;;18.73;;
31596;SDS011;74162;50.912;6.918;2024-01-16T00:10:17;24.45;;;17.88;;
31596;SDS011;74162;50.912;6.918;2024-01-16T00:10:49;29.15;;;18.58;;
31596;SDS011;74162;50.912;6.918;2024-01-16T00:11:23;24.48;;;18.10;;
31596;SDS011;74162;50.912;6.918;2024-01-16T00:11:55;25.02;;;18.35;;
31596;SDS011;74162;50.912;6.918;2024-01-16T00:12:26;27.15;;;19.67;;
31596;SDS011;74162;50.912;6.918;2024-01-16T00:12:58;28.83;;;19.42;;
31596;SDS011;74162;50.912;6.918;2024-01-16T00:13:31;31.55;;;19.02;;
31596;SDS011;74162;50.912;6.918;2024-01-16T00:14:04;26.70;;;19.42;;
31596;SDS011;74162;50.912;6.918;2024-01-16T00:14:36;24.38;;;19.02;;
31596;SDS011;74162;50.912;6.918;2024-01-16T00:15:08;28.85;;;19.60;;
31596;SDS011;74162;50.912;6.918;2024-01-16T00:15:40;28.20;;;19.70;;
31596;SDS011;74162;50.912;6.918;2024-01-16T00:16:12;28.85;;;19.77;;
31596;SDS011;74162;50.912;6.918;2024-01-16T00:16:44;30.13;;;19.25;;
31596;SDS011;74162;50.912;6.918;2024-01-16T00:17:17;26.88;;;18.62;;
31596;SDS011;74162;50.912;6.918;2024-01-16T00:17:49;31.48;;;18.98;;
31596;SDS011;74162;50.912;6.918;2024-01-16T00:18:21;28.38;;;19.30;;
31596;SDS011;74162;50.912;6.918;2024-01-16T00:18:53;27.73;;;19.33;;
31596;SDS011;74162;50.912;6.918;2024-01-16T00:19:25;26.20;;;18.13;;
31596;SDS011;74162;50.912;6.918;2024-01-16T00:19:57;27.75;;;18.75;;
31596;SDS011;74162;50.912;6.918;2024-01-16T00:20:29;30.30;;;19.23;;
31596;SDS011;74162;50.912;6.918;2024-01-16T00:21:01;23.90;;;17.77;;
31596;SDS011;74162;50.912;6.918;2024-01-16T00:21:32;25.88;;;18.48;;
31596;SDS011;74162;50.912;6.918;2024-01-16T00:22:10;26.70;;;18.83;;
31596;SDS011;74162;50.912;6.918;2024-01-16T00:22:42;27.77;;;17.63;;
31596;SDS011;74162;50.912;6.918;2024-01-16T00:23:14;27.70;;;19.08;;
31596;SDS011;74162;50.912;6.918;2024-01-16T00:23:46;32.15;;;19.25;;
31596;SDS011;74162;50.912;6.918;2024-01-16T00:24:18;26.67;;;19.05;;
31596;SDS011;74162;50.912;6.918;2024-01-16T00:24:50;25.55;;;18.00;;
31596;SDS011;74162;50.912;6.918;2024-01-16T00:25:21;27.35;;;17.88;;
31596;SDS011;74162;50.912;6.918;2024-01-16T00:25:53;25.20;;;18.40;;
31596;SDS011;74162;50.912;6.918;2024-01-16T00:26:26;25.17;;;18.05;;
31596;SDS011;74162;50.912;6.918;2024-01-16T00:26:58;30.05;;;18.65;;
31596;SDS011;74162;50.912;6.918;2024-01-16T00:27:30;27.38;;;18.73;;
31596;SDS011;74162;50.912;6.918;2024-01-16T00:28:02;24.23;;;17.92;;
31596;SDS011;74162;50.912;6.918;2024-01-16T00:28:35;28.60;;;19.23;;
31596;SDS011;74162;50.912;6.918;2024-01-16T00:29:06;27.42;;;19.02;;
31596;SDS011;74162;50.912;6.918;2024-01-16T00:29:38;31.35;;;18.92;;
31596;SDS011;74162;50.912;6.918;2024-01-16T00:30:11;27.90;;;18.38;;
31596;SDS011;74162;50.912;6.918;2024-01-16T00:30:43;29.17;;;18.70;;
31596;SDS011;74162;50.912;6.918;2024-01-16T00:31:15;28.00;;;18.65;;
31596;SDS011;74162;50.912;6.918;2024-01-16T00:31:47;27.40;;;18.70;;
31596;SDS011;74162;50.912;6.918;2024-01-16T00:32:19;25.58;;;18.33;;
31596;SDS011;74162;50.912;6.918;2024-01-16T00:32:51;26.30;;;17.38;;
31596;SDS011;74162;50.912;6.918;2024-01-16T00:33:23;26.05;;;18.08;;
31596;SDS011;74162;50.912;6.918;2024-01-16T00:33:55;27.88;;;18.35;;
31596;SDS011;74162;50.912;6.918;2024-01-16T00:34:27;23.70;;;17.90;;
31596;SDS011;74162;50.912;6.918;2024-01-16T00:34:59;26.40;;;17.75;;
31596;SDS011;74162;50.912;6.918;2024-01-16T00:35:31;26.23;;;18.42;;
31596;SDS011;74162;50.912;6.918;2024-01-16T00:36:03;25.02;;;17.80;;
31596;SDS011;74162;50.912;6.918;2024-01-16T00:36:36;28.10;;;18.75;;
31596;SDS011;74162;50.912;6.918;2024-01-16T00:37:08;25.75;;;18.27;;
31596;SDS011;74162;50.912;6.918;2024-01-16T00:37:39;28.77;;;18.35;;
31596;SDS011;74162;50.912;6.918;2024-01-16T00:38:11;26.52;;;17.75;;
31596;SDS011;74162;50.912;6.918;2024-01-16T00:38:43;27.00;;;17.73;;
31596;SDS011;74162;50.912;6.918;2024-01-16T00:39:15;28.63;;;17.60;;
31596;SDS011;74162;50.912;6.918;2024-01-16T00:39:47;25.92;;;17.25;;
31596;SDS011;74162;50.912;6.918;2024-01-16T00:40:19;25.00;;;17.58;;
31596;SDS011;74162;50.912;6.918;2024-01-16T00:40:51;25.52;;;17.63;;
31596;SDS011;74162;50.912;6.918;2024-01-16T00:41:22;24.23;;;17.27;;
31596;SDS011;74162;50.912;6.918;2024-01-16T00:41:56;27.30;;;18.83;;
31596;SDS011;74162;50.912;6.918;2024-01-16T00:42:28;28.17;;;17.60;;
31596;SDS011;74162;50.912;6.918;2024-01-16T00:42:59;27.17;;;18.02;;
31596;SDS011;74162;50.912;6.918;2024-01-16T00:43:31;26.90;;;18.45;;
31596;SDS011;74162;50.912;6.918;2024-01-16T00:44:03;26.50;;;18.02;;
31596;SDS011;74162;50.912;6.918;2024-01-16T00:44:35;24.55;;;17.90;;
31596;SDS011;74162;50.912;6.918;2024-01-16T00:45:07;22.55;;;18.05;;
31596;SDS011;74162;50.912;6.918;2024-01-16T00:45:39;24.52;;;18.05;;
31596;SDS011;74162;50.912;6.918;2024-01-16T00:46:11;25.05;;;17.70;;
31596;SDS011;74162;50.912;6.918;2024-01-16T00:46:43;26.95;;;17.80;;
31596;SDS011;74162;50.912;6.918;2024-01-16T00:47:15;29.00;;;18.33;;
31596;SDS011;74162;50.912;6.918;2024-01-16T00:47:46;26.98;;;18.88;;
31596;SDS011;74162;50.912;6.918;2024-01-16T00:48:19;25.30;;;18.08;;
31596;SDS011;74162;50.912;6.918;2024-01-16T00:48:51;24.13;;;18.33;;
31596;SDS011;74162;50.912;6.918;2024-01-16T00:49:23;25.95;;;18.17;;
31596;SDS011;74162;50.912;6.918;2024-01-16T00:49:55;22.92;;;17.40;;
31596;SDS011;74162;50.912;6.918;2024-01-16T00:50:26;26.33;;;17.23;;
31596;SDS011;74162;50.912;6.918;2024-01-16T00:50:58;28.10;;;18.17;;
31596;SDS011;74162;50.912;6.918;2024-01-16T00:51:30;28.38;;;18.15;;
31596;SDS011;74162;50.912;6.918;2024-01-16T00:52:02;24.33;;;17.33;;
31596;SDS011;74162;50.912;6.918;2024-01-16T00:52:35;23.55;;;16.88;;
31596;SDS011;74162;50.912;6.918;2024-01-16T00:53:07;25.10;;;17.98;;
31596;SDS011;74162;50.912;6.918;2024-01-16T00:53:39;26.88;;;18.98;;
31596;SDS011;74162;50.912;6.918;2024-01-16T00:54:12;25.80;;;17.52;;
31596;SDS011;74162;50.912;6.918;2024-01-16T00:54:43;23.48;;;17.23;;
31596;SDS011;74162;50.912;6.918;2024-01-16T00:55:16;26.70;;;17.20;;
31596;SDS011;74162;50.912;6.918;2024-01-16T00:55:47;26.58;;;18.08;;
31596;SDS011;74162;50.912;6.918;2024-01-16T00:56:19;24.17;;;17.85;;
31596;SDS011;74162;50.912;6.918;2024-01-16T00:56:51;27.90;;;18.50;;
31596;SDS011;74162;50.912;6.918;2024-01-16T00:57:25;27.92;;;18.70;;
31596;SDS011;74162;50.912;6.918;2024-01-16T00:57:56;26.73;;;17.35;;
31596;SDS011;74162;50.912;6.918;2024-01-16T00:58:28;25.92;;;18.35;;
31596;SDS011;74162;50.912;6.918;2024-01-16T00:59:00;26.70;;;18.20;;
31596;SDS011;74162;50.912;6.918;2024-01-16T00:59:32;26.35;;;18.70;;
31596;SDS011;74162;50.912;6.918;2024-01-16T01:00:05;26.70;;;18.40;;
31596;SDS011;74162;50.912;6.918;2024-01-16T01:00:38;26.50;;;18.15;;
31596;SDS011;74162;50.912;6.918;2024-01-16T01:01:10;28.33;;;18.95;;
31596;SDS011;74162;50.912;6.918;2024-01-16T01:01:42;25.95;;;18.90;;
31596;SDS011;74162;50.912;6.918;2024-01-16T01:02:14;27.95;;;19.20;;
31596;SDS011;74162;50.912;6.918;2024-01-16T01:02:46;29.65;;;18.45;;
31596;SDS011;74162;50.912;6.918;2024-01-16T01:03:18;24.90;;;17.70;;
31596;SDS011;74162;50.912;6.918;2024-01-16T01:03:50;29.23;;;19.17;;
31596;SDS011;74162;50.912;6.918;2024-01-16T01:04:22;28.05;;;18.02;;
31596;SDS011;74162;50.912;6.918;2024-01-16T01:04:54;28.80;;;18.58;;
31596;SDS011;74162;50.912;6.918;2024-01-16T01:05:26;27.40;;;17.40;;
31596;SDS011;74162;50.912;6.918;2024-01-16T01:05:58;23.52;;;17.95;;
31596;SDS011;74162;50.912;6.918;2024-01-16T01:06:32;25.95;;;17.25;;
31596;SDS011;74162;50.912;6.918;2024-01-16T01:07:05;23.73;;;16.83;;
31596;SDS011;74162;50.912;6.918;2024-01-16T01:07:37;26.80;;;16.92;;
31596;SDS011;74162;50.912;6.918;2024-01-16T01:08:09;25.92;;;17.10;;
31596;SDS011;74162;50.912;6.918;2024-01-16T01:08:41;26.92;;;17.55;;
31596;SDS011;74162;50.912;6.918;2024-01-16T01:09:13;27.30;;;17.77;;
31596;SDS011;74162;50.912;6.918;2024-01-16T01:09:44;28.73;;;17.75;;
31596;SDS011;74162;50.912;6.918;2024-01-16T01:10:16;25.48;;;17.63;;
31596;SDS011;74162;50.912;6.918;2024-01-16T01:10:48;26.50;;;18.30;;
31596;SDS011;74162;50.912;6.918;2024-01-16T01:11:21;23.00;;;16.73;;
31596;SDS011;74162;50.912;6.918;2024-01-16T01:11:52;28.95;;;16.45;;
31596;SDS011;74162;50.912;6.918;2024-01-16T01:12:26;24.23;;;17.98;;
31596;SDS011;74162;50.912;6.918;2024-01-16T01:12:58;26.42;;;18.02;;
31596;SDS011;74162;50.912;6.918;2024-01-16T01:13:29;24.60;;;16.38;;
31596;SDS011;74162;50.912;6.918;2024-01-16T01:14:01;27.48;;;17.63;;
31596;SDS011;74162;50.912;6.918;2024-01-16T01:14:33;23.52;;;16.70;;
31596;SDS011;74162;50.912;6.918;2024-01-16T01:15:06;26.90;;;17.88;;
31596;SDS011;74162;50.912;6.918;2024-01-16T01:15:39;24.35;;;16.80;;
31596;SDS011;74162;50.912;6.918;2024-01-16T01:16:11;28.20;;;17.27;;
31596;SDS011;74162;50.912;6.918;2024-01-16T01:16:43;26.05;;;16.85;;
31596;SDS011;74162;50.912;6.918;2024-01-16T01:17:15;23.48;;;16.95;;
31596;SDS011;74162;50.912;6.918;2024-01-16T01:17:48;27.58;;;18.27;;
31596;SDS011;74162;50.912;6.918;2024-01-16T01:18:20;25.15;;;17.73;;
31596;SDS011;74162;50.912;6.918;2024-01-16T01:18:52;25.95;;;16.17;;
31596;SDS011;74162;50.912;6.918;2024-01-16T01:19:24;29.38;;;17.02;;
31596;SDS011;74162;50.912;6.918;2024-01-16T01:19:56;22.60;;;16.42;;
31596;SDS011;74162;50.912;6.918;2024-01-16T01:20:28;24.17;;;16.35;;
31596;SDS011;74162;50.912;6.918;2024-01-16T01:21:00;25.45;;;16.15;;
31596;SDS011;74162;50.912;6.918;2024-01-16T01:21:32;22.60;;;16.00;;
31596;SDS011;74162;50.912;6.918;2024-01-16T01:22:04;22.98;;;15.05;;
31596;SDS011;74162;50.912;6.918;2024-01-16T01:22:36;24.83;;;16.50;;
31596;SDS011;74162;50.912;6.918;2024-01-16T01:23:08;23.65;;;16.05;;
31596;SDS011;74162;50.912;6.918;2024-01-16T01:23:40;24.80;;;16.10;;
31596;SDS011;74162;50.912;6.918;2024-01-16T01:24:12;28.05;;;16.70;;
31596;SDS011;74162;50.912;6.918;2024-01-16T01:24:44;23.20;;;15.23;;
31596;SDS011;74162;50.912;6.918;2024-01-16T01:25:16;23.08;;;16.45;;
31596;SDS011;74162;50.912;6.918;2024-01-16T01:25:48;22.52;;;16.63;;
31596;SDS011;74162;50.912;6.918;2024-01-16T01:26:20;24.13;;;16.48;;
31596;SDS011;74162;50.912;6.918;2024-01-16T01:26:52;26.90;;;16.88;;
31596;SDS011;74162;50.912;6.918;2024-01-16T01:27:25;23.85;;;15.80;;
31596;SDS011;74162;50.912;6.918;2024-01-16T01:27:57;24.83;;;15.55;;
31596;SDS011;74162;50.912;6.918;2024-01-16T01:28:29;20.92;;;15.25;;
31596;SDS011;74162;50.912;6.918;2024-01-16T01:29:00;24.08;;;15.13;;
31596;SDS011;74162;50.912;6.918;2024-01-16T01:29:32;25.52;;;15.07;;
31596;SDS011;74162;50.912;6.918;2024-01-16T01:30:05;27.95;;;15.80;;
31596;SDS011;74162;50.912;6.918;2024-01-16T01:30:38;24.17;;;16.58;;
31596;SDS011;74162;50.912;6.918;2024-01-16T01:31:10;22.90;;;15.27;;
31596;SDS011;74162;50.912;6.918;2024-01-16T01:31:44;25.75;;;15.02;;
31596;SDS011;74162;50.912;6.918;2024-01-16T01:32:17;22.52;;;14.80;;
31596;SDS011;74162;50.912;6.918;2024-01-16T01:32:49;22.20;;;14.27;;
31596;SDS011;74162;50.912;6.918;2024-01-16T01:33:21;22.60;;;15.75;;
31596;SDS011;74162;50.912;6.918;2024-01-16T01:33:53;23.25;;;14.57;;
31596;SDS011;74162;50.912;6.918;2024-01-16T01:34:25;20.67;;;14.30;;
31596;SDS011;74162;50.912;6.918;2024-01-16T01:34:57;25.50;;;14.65;;
31596;SDS011;74162;50.912;6.918;2024-01-16T01:35:29;22.70;;;14.00;;
31596;SDS011;74162;50.912;6.918;2024-01-16T01:36:01;22.50;;;14.52;;
31596;SDS011;74162;50.912;6.918;2024-01-16T01:36:33;21.00;;;14.40;;
31596;SDS011;74162;50.912;6.918;2024-01-16T01:37:05;21.98;;;14.34;;
31596;SDS011;74162;50.912;6.918;2024-01-16T01:37:37;21.67;;;13.65;;
31596;SDS011;74162;50.912;6.918;2024-01-16T01:38:09;23.10;;;14.07;;
31596;SDS011;74162;50.912;6.918;2024-01-16T01:38:40;16.95;;;12.82;;
31596;SDS011;74162;50.912;6.918;2024-01-16T01:39:12;22.80;;;13.40;;
31596;SDS011;74162;50.912;6.918;2024-01-16T01:39:44;20.80;;;13.18;;
31596;SDS011;74162;50.912;6.918;2024-01-16T01:40:16;19.98;;;12.73;;
31596;SDS011;74162;50.912;6.918;2024-01-16T01:40:48;25.38;;;13.10;;
31596;SDS011;74162;50.912;6.918;2024-01-16T01:41:20;25.08;;;14.10;;
31596;SDS011;74162;50.912;6.918;2024-01-16T01:41:51;23.83;;;14.27;;
31596;SDS011;74162;50.912;6.918;2024-01-16T01:42:23;21.75;;;13.07;;
31596;SDS011;74162;50.912;6.918;2024-01-16T01:42:57;21.17;;;12.85;;
31596;SDS011;74162;50.912;6.918;2024-01-16T01:43:29;24.15;;;13.15;;
31596;SDS011;74162;50.912;6.918;2024-01-16T01:44:00;19.00;;;13.00;;
31596;SDS011;74162;50.912;6.918;2024-01-16T01:44:32;20.15;;;13.98;;
31596;SDS011;74162;50.912;6.918;2024-01-16T01:45:05;21.85;;;13.52;;
31596;SDS011;74162;50.912;6.918;2024-01-16T01:45:37;20.08;;;13.10;;
31596;SDS011;74162;50.912;6.918;2024-01-16T01:46:10;23.23;;;13.30;;
31596;SDS011;74162;50.912;6.918;2024-01-16T01:46:44;19.08;;;13.88;;
31596;SDS011;74162;50.912;6.918;2024-01-16T01:47:16;20.83;;;13.65;;
31596;SDS011;74162;50.912;6.918;2024-01-16T01:47:48;21.63;;;13.43;;
31596;SDS011;74162;50.912;6.918;2024-01-16T01:48:21;24.60;;;13.65;;
31596;SDS011;74162;50.912;6.918;2024-01-16T01:48:53;20.95;;;14.32;;
31596;SDS011;74162;50.912;6.918;2024-01-16T01:49:26;24.00;;;14.82;;
31596;SDS011;74162;50.912;6.918;2024-01-16T01:49:59;22.25;;;14.15;;
31596;SDS011;74162;50.912;6.918;2024-01-16T01:50:31;25.08;;;15.05;;
31596;SDS011;74162;50.912;6.918;2024-01-16T01:51:02;24.33;;;14.98;;
31596;SDS011;74162;50.912;6.918;2024-01-16T01:51:35;26.00;;;15.38;;
31596;SDS011;74162;50.912;6.918;2024-01-16T01:52:07;26.02;;;15.32;;
31596;SDS011;74162;50.912;6.918;2024-01-16T01:52:40;26.35;;;15.95;;
31596;SDS011;74162;50.912;6.918;2024-01-16T01:53:13;28.13;;;17.15;;
31596;SDS011;74162;50.912;6.918;2024-01-16T01:53:45;22.42;;;17.10;;
31596;SDS011;74162;50.912;6.918;2024-01-16T01:54:21;26.42;;;16.80;;
31596;SDS011;74162;50.912;6.918;2024-01-16T01:54:53;27.58;;;17.75;;
31596;SDS011;74162;50.912;6.918;2024-01-16T01:55:25;30.23;;;17.65;;
31596;SDS011;74162;50.912;6.918;2024-01-16T01:55:58;22.73;;;16.50;;
31596;SDS011;74162;50.912;6.918;2024-01-16T01:56:35;23.75;;;16.65;;
31596;SDS011;74162;50.912;6.918;2024-01-16T01:57:07;23.88;;;16.13;;
31596;SDS011;74162;50.912;6.918;2024-01-16T01:57:41;23.70;;;17.15;;
31596;SDS011;74162;50.912;6.918;2024-01-16T01:58:13;25.27;;;17.13;;
31596;SDS011;74162;50.912;6.918;2024-01-16T01:58:46;24.67;;;17.33;;
31596;SDS011;74162;50.912;6.918;2024-01-16T01:59:19;22.80;;;16.77;;
31596;SDS011;74162;50.912;6.918;2024-01-16T01:59:53;26.85;;;16.65;;
31596;SDS011;74162;50.912;6.918;2024-01-16T02:00:25;27.98;;;19.00;;
31596;SDS011;74162;50.912;6.918;2024-01-16T02:00:57;25.33;;;17.17;;
31596;SDS011;74162;50.912;6.918;2024-01-16T02:01:29;24.35;;;18.35;;
31596;SDS011;74162;50.912;6.918;2024-01-16T02:02:04;27.88;;;19.17;;
31596;SDS011;74162;50.912;6.918;2024-01-16T02:02:36;25.92;;;18.52;;
31596;SDS011;74162;50.912;6.918;2024-01-16T02:03:08;30.35;;;19.15;;
31596;SDS011;74162;50.912;6.918;2024-01-16T02:03:41;26.02;;;19.13;;
31596;SDS011;74162;50.912;6.918;2024-01-16T02:04:15;25.33;;;19.75;;
31596;SDS011;74162;50.912;6.918;2024-01-16T02:04:48;26.92;;;19.92;;
31596;SDS011;74162;50.912;6.918;2024-01-16T02:05:21;26.55;;;19.77;;
31596;SDS011;74162;50.912;6.918;2024-01-16T02:05:54;28.77;;;19.83;;
31596;SDS011;74162;50.912;6.918;2024-01-16T02:06:27;27.83;;;19.92;;
31596;SDS011;74162;50.912;6.918;2024-01-16T02:06:59;25.88;;;20.42;;
31596;SDS011;74162;50.912;6.918;2024-01-16T02:07:31;29.73;;;20.50;;
31596;SDS011;74162;50.912;6.918;2024-01-16T02:08:05;29.05;;;20.42;;
31596;SDS011;74162;50.912;6.918;2024-01-16T02:08:37;28.45;;;21.48;;
31596;SDS011;74162;50.912;6.918;2024-01-16T02:09:10;31.77;;;21.70;;
31596;SDS011;74162;50.912;6.918;2024-01-16T02:09:42;27.95;;;21.38;;
31596;SDS011;74162;50.912;6.918;2024-01-16T02:10:14;31.08;;;22.02;;
31596;SDS011;74162;50.912;6.918;2024-01-16T02:10:46;31.40;;;21.90;;
31596;SDS011;74162;50.912;6.918;2024-01-16T02:11:20;29.25;;;20.85;;
31596;SDS011;74162;50.912;6.918;2024-01-16T02:11:52;29.27;;;20.83;;
31596;SDS011;74162;50.912;6.918;2024-01-16T02:12:24;29.08;;;20.38;;
31596;SDS011;74162;50.912;6.918;2024-01-16T02:12:57;27.27;;;20.30;;
31596;SDS011;74162;50.912;6.918;2024-01-16T02:13:30;26.02;;;20.52;;
31596;SDS011;74162;50.912;6.918;2024-01-16T02:14:03;31.42;;;19.95;;
31596;SDS011;74162;50.912;6.918;2024-01-16T02:14:34;31.00;;;21.00;;
31596;SDS011;74162;50.912;6.918;2024-01-16T02:15:07;35.13;;;20.77;;
31596;SDS011;74162;50.912;6.918;2024-01-16T02:15:39;27.08;;;20.92;;
31596;SDS011;74162;50.912;6.918;2024-01-16T02:16:17;28.52;;;20.08;;
31596;SDS011;74162;50.912;6.918;2024-01-16T02:16:50;28.55;;;20.25;;
31596;SDS011;74162;50.912;6.918;2024-01-16T02:17:21;32.70;;;20.38;;
31596;SDS011;74162;50.912;6.918;2024-01-16T02:17:53;26.92;;;20.40;;
31596;SDS011;74162;50.912;6.918;2024-01-16T02:18:25;28.45;;;20.20;;
31596;SDS011;74162;50.912;6.918;2024-01-16T02:18:57;31.52;;;20.20;;
31596;SDS011;74162;50.912;6.918;2024-01-16T02:19:29;29.73;;;20.52;;
31596;SDS011;74162;50.912;6.918;2024-01-16T02:20:01;29.60;;;20.13;;
31596;SDS011;74162;50.912;6.918;2024-01-16T02:20:33;28.23;;;20.45;;
31596;SDS011;74162;50.912;6.918;2024-01-16T02:21:05;25.92;;;18.83;;
31596;SDS011;74162;50.912;6.918;2024-01-16T02:21:38;29.52;;;19.92;;
31596;SDS011;74162;50.912;6.918;2024-01-16T02:22:19;33.50;;;19.73;;
31596;SDS011;74162;50.912;6.918;2024-01-16T02:22:54;30.98;;;19.52;;
31596;SDS011;74162;50.912;6.918;2024-01-16T02:23:30;26.80;;;19.60;;
31596;SDS011;74162;50.912;6.918;2024-01-16T02:24:02;31.45;;;19.38;;
31596;SDS011;74162;50.912;6.918;2024-01-16T02:24:36;31.13;;;19.75;;
31596;SDS011;74162;50.912;6.918;2024-01-16T02:25:08;37.20;;;20.13;;
31596;SDS011;74162;50.912;6.918;2024-01-16T02:25:41;31.08;;;20.08;;
31596;SDS011;74162;50.912;6.918;2024-01-16T02:26:14;27.50;;;19.65;;
31596;SDS011;74162;50.912;6.918;2024-01-16T02:26:46;26.65;;;18.80;;
31596;SDS011;74162;50.912;6.918;2024-01-16T02:27:18;28.95;;;18.75;;
31596;SDS011;74162;50.912;6.918;2024-01-16T02:27:50;27.58;;;19.15;;
31596;SDS011;74162;50.912;6.918;2024-01-16T02:28:22;26.08;;;18.95;;
31596;SDS011;74162;50.912;6.918;2024-01-16T02:28:54;24.90;;;18.75;;
31596;SDS011;74162;50.912;6.918;2024-01-16T02:29:26;31.52;;;19.17;;
31596;SDS011;74162;50.912;6.918;2024-01-16T02:29:58;31.77;;;18.55;;
31596;SDS011;74162;50.912;6.918;2024-01-16T02:30:29;27.65;;;17.25;;
31596;SDS011;74162;50.912;6.918;2024-01-16T02:31:01;29.50;;;17.38;;
31596;SDS011;74162;50.912;6.918;2024-01-16T02:31:33;28.17;;;18.58;;
31596;SDS011;74162;50.912;6.918;2024-01-16T02:32:06;30.60;;;17.75;;
31596;SDS011;74162;50.912;6.918;2024-01-16T02:32:38;26.60;;;18.33;;
31596;SDS011;74162;50.912;6.918;2024-01-16T02:33:10;26.42;;;18.08;;
31596;SDS011;74162;50.912;6.918;2024-01-16T02:33:42;29.70;;;18.25;;
31596;SDS011;74162;50.912;6.918;2024-01-16T02:34:14;25.65;;;17.90;;
31596;SDS011;74162;50.912;6.918;2024-01-16T02:34:46;30.75;;;18.38;;
31596;SDS011;74162;50.912;6.918;2024-01-16T02:35:18;27.55;;;16.98;;
31596;SDS011;74162;50.912;6.918;2024-01-16T02:35:50;26.27;;;17.15;;
31596;SDS011;74162;50.912;6.918;2024-01-16T02:36:22;26.40;;;16.80;;
31596;SDS011;74162;50.912;6.918;2024-01-16T02:36:54;26.58;;;16.98;;
31596;SDS011;74162;50.912;6.918;2024-01-16T02:37:26;24.33;;;16.63;;
31596;SDS011;74162;50.912;6.918;2024-01-16T02:37:57;27.98;;;16.75;;
31596;SDS011;74162;50.912;6.918;2024-01-16T02:38:31;31.75;;;17.67;;
31596;SDS011;74162;50.912;6.918;2024-01-16T02:39:02;25.17;;;16.52;;
31596;SDS011;74162;50.912;6.918;2024-01-16T02:39:34;29.55;;;16.02;;
31596;SDS011;74162;50.912;6.918;2024-01-16T02:40:06;32.17;;;17.42;;
31596;SDS011;74162;50.912;6.918;2024-01-16T02:40:39;29.40;;;17.42;;
31596;SDS011;74162;50.912;6.918;2024-01-16T02:41:12;26.08;;;16.75;;
31596;SDS011;74162;50.912;6.918;2024-01-16T02:41:45;28.33;;;16.00;;
31596;SDS011;74162;50.912;6.918;2024-01-16T02:42:17;27.80;;;16.25;;
31596;SDS011;74162;50.912;6.918;2024-01-16T02:42:48;25.65;;;16.15;;
31596;SDS011;74162;50.912;6.918;2024-01-16T02:43:20;24.58;;;15.73;;
31596;SDS011;74162;50.912;6.918;2024-01-16T02:43:52;26.35;;;16.80;;
31596;SDS011;74162;50.912;6.918;2024-01-16T02:44:24;24.13;;;16.23;;
31596;SDS011;74162;50.912;6.918;2024-01-16T02:44:56;26.67;;;16.33;;
31596;SDS011;74162;50.912;6.918;2024-01-16T02:45:28;20.85;;;15.48;;
31596;SDS011;74162;50.912;6.918;2024-01-16T02:46:00;23.80;;;15.75;;
31596;SDS011;74162;50.912;6.918;2024-01-16T02:46:32;25.23;;;14.88;;
31596;SDS011;74162;50.912;6.918;2024-01-16T02:47:04;24.50;;;15.28;;
31596;SDS011;74162;50.912;6.918;2024-01-16T02:47:36;22.98;;;14.90;;
31596;SDS011;74162;50.912;6.918;2024-01-16T02:48:08;28.45;;;15.95;;
31596;SDS011;74162;50.912;6.918;2024-01-16T02:48:40;23.92;;;15.10;;
31596;SDS011;74162;50.912;6.918;2024-01-16T02:49:12;24.65;;;15.13;;
31596;SDS011;74162;50.912;6.918;2024-01-16T02:49:44;23.73;;;15.07;;
31596;SDS011;74162;50.912;6.918;2024-01-16T02:50:16;23.05;;;14.85;;
31596;SDS011;74162;50.912;6.918;2024-01-16T02:50:48;24.15;;;13.95;;
31596;SDS011;74162;50.912;6.918;2024-01-16T02:51:20;24.50;;;15.07;;
31596;SDS011;74162;50.912;6.918;2024-01-16T02:51:52;23.38;;;15.23;;
31596;SDS011;74162;50.912;6.918;2024-01-16T02:52:24;27.65;;;15.88;;
31596;SDS011;74162;50.912;6.918;2024-01-16T02:52:56;23.77;;;15.98;;
31596;SDS011;74162;50.912;6.918;2024-01-16T02:53:28;24.80;;;15.38;;
31596;SDS011;74162;50.912;6.918;2024-01-16T02:54:01;25.58;;;16.58;;
31596;SDS011;74162;50.912;6.918;2024-01-16T02:54:33;27.00;;;16.00;;
31596;SDS011;74162;50.912;6.918;2024-01-16T02:55:05;28.27;;;16.05;;
31596;SDS011;74162;50.912;6.918;2024-01-16T02:55:38;26.88;;;16.10;;
31596;SDS011;74162;50.912;6.918;2024-01-16T02:56:10;26.60;;;16.52;;
31596;SDS011;74162;50.912;6.918;2024-01-16T02:56:42;25.35;;;16.17;;
31596;SDS011;74162;50.912;6.918;2024-01-16T02:57:14;26.70;;;16.30;;
31596;SDS011;74162;50.912;6.918;2024-01-16T02:57:46;29.33;;;17.15;;
31596;SDS011;74162;50.912;6.918;2024-01-16T02:58:18;26.23;;;16.23;;
31596;SDS011;74162;50.912;6.918;2024-01-16T02:58:50;27.17;;;16.50;;
31596;SDS011;74162;50.912;6.918;2024-01-16T02:59:22;23.85;;;16.05;;
31596;SDS011;74162;50.912;6.918;2024-01-16T02:59:54;26.80;;;17.02;;
31596;SDS011;74162;50.912;6.918;2024-01-16T03:00:25;25.20;;;16.50;;
31596;SDS011;74162;50.912;6.918;2024-01-16T03:00:57;33.15;;;18.17;;
31596;SDS011;74162;50.912;6.918;2024-01-16T03:01:29;27.17;;;17.63;;
31596;SDS011;74162;50.912;6.918;2024-01-16T03:02:01;25.75;;;16.83;;
31596;SDS011;74162;50.912;6.918;2024-01-16T03:02:33;30.38;;;17.86;;
31596;SDS011;74162;50.912;6.918;2024-01-16T03:03:05;27.63;;;17.33;;
31596;SDS011;74162;50.912;6.918;2024-01-16T03:03:38;28.55;;;16.92;;
31596;SDS011;74162;50.912;6.918;2024-01-16T03:04:10;25.95;;;17.02;;
31596;SDS011;74162;50.912;6.918;2024-01-16T03:04:42;29.30;;;17.85;;
31596;SDS011;74162;50.912;6.918;2024-01-16T03:05:14;29.08;;;17.08;;
31596;SDS011;74162;50.912;6.918;2024-01-16T03:05:46;24.60;;;15.98;;
31596;SDS011;74162;50.912;6.918;2024-01-16T03:06:21;25.05;;;15.75;;
31596;SDS011;74162;50.912;6.918;2024-01-16T03:06:53;26.00;;;17.77;;
31596;SDS011;74162;50.912;6.918;2024-01-16T03:07:25;26.77;;;17.90;;
31596;SDS011;74162;50.912;6.918;2024-01-16T03:07:57;31.23;;;18.40;;
31596;SDS011;74162;50.912;6.918;2024-01-16T03:08:29;25.95;;;17.00;;